createdAt,value
2017-07-20T00:00:48.161Z,21.40
2017-07-20T00:03:15.390Z,21.40
2017-07-20T00:05:41.885Z,21.40
2017-07-20T00:08:08.413Z,21.50
2017-07-20T00:10:35.650Z,21.60
2017-07-20T00:13:02.135Z,21.60
2017-07-20T00:15:28.639Z,21.60
2017-07-20T00:17:55.857Z,21.60
2017-07-20T00:20:22.328Z,21.60
2017-07-20T00:22:48.821Z,21.60
2017-07-20T00:25:15.290Z,21.60
2017-07-20T00:27:41.748Z,21.60
2017-07-20T00:30:08.197Z,21.60
2017-07-20T00:32:34.650Z,21.60
2017-07-20T00:35:01.146Z,21.40
2017-07-20T00:37:27.622Z,21.40
2017-07-20T00:39:54.101Z,21.50
2017-07-20T00:42:20.593Z,21.50
2017-07-20T00:44:47.066Z,21.40
2017-07-20T00:47:13.529Z,21.30
2017-07-20T00:49:40.049Z,21.50
2017-07-20T00:52:06.547Z,21.60
2017-07-20T00:54:33.782Z,21.60
2017-07-20T00:57:01.097Z,21.60
2017-07-20T00:59:27.559Z,21.60
2017-07-20T01:01:54.060Z,21.60
2017-07-20T01:04:20.580Z,21.20
2017-07-20T01:06:47.135Z,21.00
2017-07-20T01:09:13.617Z,21.30
2017-07-20T01:11:40.113Z,21.40
2017-07-20T01:14:06.578Z,21.10
2017-07-20T01:16:33.110Z,21.20
2017-07-20T01:18:59.633Z,21.30
2017-07-20T01:21:26.971Z,21.00
2017-07-20T01:23:53.465Z,21.00
2017-07-20T01:26:19.937Z,21.10
2017-07-20T01:28:46.449Z,21.30
2017-07-20T01:31:12.930Z,21.40
2017-07-20T01:33:40.182Z,21.50
2017-07-20T01:36:07.417Z,21.50
2017-07-20T01:38:33.898Z,21.00
2017-07-20T01:41:00.390Z,21.50
2017-07-20T01:43:27.011Z,21.50
2017-07-20T01:45:53.514Z,21.60
2017-07-20T01:48:20.077Z,21.20
2017-07-20T01:50:46.594Z,21.70
2017-07-20T01:53:13.087Z,21.40
2017-07-20T01:55:39.580Z,21.00
2017-07-20T01:58:06.081Z,21.20
2017-07-20T02:00:32.572Z,21.20
2017-07-20T02:02:59.096Z,21.20
2017-07-20T02:05:25.644Z,21.30
2017-07-20T02:07:52.184Z,21.20
2017-07-20T02:10:18.755Z,21.30
2017-07-20T02:12:45.243Z,21.40
2017-07-20T02:15:11.710Z,21.50
2017-07-20T02:17:38.207Z,21.50
2017-07-20T02:20:04.722Z,21.40
2017-07-20T02:22:31.222Z,21.50
2017-07-20T02:24:57.714Z,21.50
2017-07-20T02:27:24.220Z,21.50
2017-07-20T02:29:50.723Z,21.40
2017-07-20T02:32:17.212Z,21.50
2017-07-20T02:34:43.694Z,21.50
2017-07-20T02:37:10.207Z,21.50
2017-07-20T02:39:36.720Z,21.30
2017-07-20T02:42:03.192Z,21.40
2017-07-20T02:44:29.654Z,21.50
2017-07-20T02:46:56.107Z,21.50
2017-07-20T02:49:22.627Z,21.50
2017-07-20T02:51:49.254Z,21.50
2017-07-20T02:54:15.762Z,21.60
2017-07-20T02:56:42.250Z,21.60
2017-07-20T02:59:08.760Z,21.50
2017-07-20T03:01:35.278Z,21.60
2017-07-20T03:04:01.758Z,21.60
2017-07-20T03:06:28.254Z,21.60
2017-07-20T03:08:54.700Z,21.40
2017-07-20T03:11:21.156Z,21.30
2017-07-20T03:13:48.360Z,21.10
2017-07-20T03:16:14.819Z,20.90
2017-07-20T03:18:42.110Z,21.10
2017-07-20T03:21:08.565Z,21.10
2017-07-20T03:23:35.058Z,21.20
2017-07-20T03:26:01.590Z,21.30
2017-07-20T03:28:28.084Z,21.40
2017-07-20T03:30:54.594Z,21.50
2017-07-20T03:33:21.081Z,21.50
2017-07-20T03:35:47.541Z,21.50
2017-07-20T03:38:14.001Z,21.20
2017-07-20T03:40:41.234Z,21.20
2017-07-20T03:43:07.708Z,21.20
2017-07-20T03:45:41.237Z,21.30
2017-07-20T03:48:07.759Z,21.40
2017-07-20T03:50:35.007Z,21.30
2017-07-20T03:53:02.247Z,21.40
2017-07-20T03:55:28.715Z,21.40
2017-07-20T03:57:55.192Z,21.50
2017-07-20T04:00:22.457Z,21.40
2017-07-20T04:02:49.660Z,20.90
2017-07-20T04:05:16.163Z,20.90
2017-07-20T04:07:42.694Z,20.80
2017-07-20T04:10:09.162Z,21.00
2017-07-20T04:12:35.645Z,21.20
2017-07-20T04:15:02.929Z,21.40
2017-07-20T04:17:29.394Z,21.40
2017-07-20T04:19:55.878Z,21.50
2017-07-20T04:22:22.364Z,21.40
2017-07-20T04:24:48.770Z,21.50
2017-07-20T04:27:15.220Z,21.30
2017-07-20T04:29:41.705Z,21.10
2017-07-20T04:32:08.254Z,20.90
2017-07-20T04:34:34.749Z,20.90
2017-07-20T04:37:01.290Z,20.90
2017-07-20T04:39:27.770Z,20.80
2017-07-20T04:41:54.240Z,20.80
2017-07-20T04:44:20.727Z,20.60
2017-07-20T04:46:47.187Z,20.70
2017-07-20T04:49:13.669Z,20.70
2017-07-20T04:51:40.867Z,20.40
2017-07-20T04:54:07.354Z,20.40
2017-07-20T04:56:33.843Z,20.30
2017-07-20T04:59:00.318Z,20.20
2017-07-20T05:01:27.518Z,20.20
2017-07-20T05:03:53.994Z,20.10
2017-07-20T05:06:21.226Z,20.00
2017-07-20T05:08:47.721Z,20.00
2017-07-20T05:11:14.198Z,19.90
2017-07-20T05:13:41.472Z,19.70
2017-07-20T05:16:07.949Z,19.70
2017-07-20T05:18:34.414Z,19.60
2017-07-20T05:21:00.874Z,19.70
2017-07-20T05:23:27.374Z,19.40
2017-07-20T05:25:53.859Z,19.30
2017-07-20T05:28:20.318Z,19.40
2017-07-20T05:30:46.827Z,19.60
2017-07-20T05:33:13.356Z,19.40
2017-07-20T05:35:39.894Z,19.40
2017-07-20T05:38:06.394Z,19.50
2017-07-20T05:40:33.619Z,19.50
2017-07-20T05:43:00.097Z,19.50
2017-07-20T05:45:26.669Z,19.60
2017-07-20T05:47:53.150Z,19.60
2017-07-20T05:50:20.350Z,19.50
2017-07-20T05:52:46.809Z,19.50
2017-07-20T05:55:13.267Z,19.50
2017-07-20T05:57:39.787Z,19.60
2017-07-20T06:00:06.258Z,19.70
2017-07-20T06:02:32.769Z,19.80
2017-07-20T06:04:59.993Z,19.70
2017-07-20T06:07:27.296Z,19.60
2017-07-20T06:09:53.780Z,19.60
2017-07-20T06:12:20.258Z,19.90
2017-07-20T06:14:46.740Z,20.00
2017-07-20T06:17:13.969Z,19.60
2017-07-20T06:19:40.495Z,19.60
2017-07-20T06:22:06.930Z,19.50
2017-07-20T06:24:33.426Z,19.80
2017-07-20T06:27:00.612Z,19.80
2017-07-20T06:29:27.110Z,19.80
2017-07-20T06:31:53.593Z,19.80
2017-07-20T06:34:20.055Z,20.10
2017-07-20T06:36:46.561Z,20.30
2017-07-20T06:39:13.810Z,20.30
2017-07-20T06:41:40.304Z,20.30
2017-07-20T06:44:06.790Z,20.60
2017-07-20T06:46:34.021Z,20.80
2017-07-20T06:49:00.549Z,20.80
2017-07-20T06:51:27.147Z,20.50
2017-07-20T06:53:53.707Z,20.60
2017-07-20T06:56:20.225Z,20.50
2017-07-20T06:58:46.708Z,20.70
2017-07-20T07:01:13.213Z,20.80
2017-07-20T07:03:39.693Z,20.90
2017-07-20T07:06:06.934Z,21.00
2017-07-20T07:08:33.468Z,21.00
2017-07-20T07:11:00.028Z,21.00
2017-07-20T07:13:26.554Z,21.10
2017-07-20T07:15:53.146Z,20.80
2017-07-20T07:18:19.668Z,20.60
2017-07-20T07:20:46.181Z,20.80
2017-07-20T07:23:12.734Z,20.80
2017-07-20T07:25:39.221Z,20.80
2017-07-20T07:28:05.732Z,20.70
2017-07-20T07:30:32.268Z,20.80
2017-07-20T07:32:58.803Z,20.70
2017-07-20T07:35:25.340Z,20.90
2017-07-20T07:37:52.590Z,20.90
2017-07-20T07:40:19.074Z,20.90
2017-07-20T07:42:45.746Z,20.90
2017-07-20T07:45:12.254Z,20.90
2017-07-20T07:47:38.767Z,20.80
2017-07-20T07:50:05.273Z,20.70
2017-07-20T07:52:31.784Z,20.80
2017-07-20T07:54:58.326Z,20.90
2017-07-20T07:57:24.878Z,21.00
2017-07-20T07:59:52.135Z,21.00
2017-07-20T08:02:18.683Z,21.00
2017-07-20T08:04:45.162Z,21.00
2017-07-20T08:07:11.646Z,21.10
2017-07-20T08:12:14.148Z,21.10
2017-07-20T08:14:40.665Z,21.10
2017-07-20T08:17:07.167Z,21.10
2017-07-20T08:19:33.672Z,20.90
2017-07-20T08:22:00.181Z,21.00
2017-07-20T08:24:26.691Z,21.10
2017-07-20T08:26:53.214Z,20.80
2017-07-20T08:29:20.458Z,21.40
2017-07-20T08:31:46.966Z,21.40
2017-07-20T08:34:13.455Z,21.50
2017-07-20T08:36:39.931Z,21.70
2017-07-20T08:39:06.470Z,21.80
2017-07-20T08:41:32.950Z,21.90
2017-07-20T08:43:59.483Z,21.60
2017-07-20T08:46:25.986Z,22.20
2017-07-20T08:48:52.500Z,22.20
2017-07-20T08:51:18.989Z,22.30
2017-07-20T08:53:45.458Z,22.60
2017-07-20T08:56:11.924Z,22.60
2017-07-20T08:58:38.423Z,22.80
2017-07-20T09:01:04.895Z,23.00
2017-07-20T09:03:31.360Z,23.20
2017-07-20T09:05:57.812Z,23.10
2017-07-20T09:08:24.273Z,23.20
2017-07-20T09:10:50.543Z,23.20
2017-07-20T09:13:17.529Z,23.20
2017-07-20T09:15:44.587Z,23.20
2017-07-20T09:18:10.845Z,23.20
2017-07-20T09:20:37.857Z,23.10
2017-07-20T09:23:04.138Z,23.10
2017-07-20T09:25:30.398Z,23.20
2017-07-20T09:27:56.671Z,23.30
2017-07-20T09:30:23.666Z,23.40
2017-07-20T09:32:49.983Z,23.40
2017-07-20T09:35:16.258Z,23.50
2017-07-20T09:37:42.532Z,23.40
2017-07-20T09:40:08.779Z,23.50
2017-07-20T09:42:35.065Z,23.60
2017-07-20T09:45:13.707Z,23.70
2017-07-20T09:47:40.210Z,23.80
2017-07-20T09:50:07.436Z,23.60
2017-07-20T09:52:33.895Z,23.60
2017-07-20T09:55:00.385Z,23.30
2017-07-20T09:57:26.878Z,23.80
2017-07-20T09:59:54.090Z,23.70
2017-07-20T10:02:21.326Z,23.70
2017-07-20T10:04:48.566Z,23.80
2017-07-20T10:07:15.061Z,23.70
2017-07-20T10:09:41.559Z,23.80
2017-07-20T10:12:08.809Z,23.90
2017-07-20T10:14:35.336Z,23.80
2017-07-20T10:17:09.493Z,24.00
2017-07-20T10:19:35.996Z,24.00
2017-07-20T10:22:02.494Z,23.70
2017-07-20T10:24:28.961Z,23.90
2017-07-20T10:26:55.449Z,23.90
2017-07-20T10:29:21.960Z,24.10
2017-07-20T10:31:48.457Z,24.30
2017-07-20T10:34:14.922Z,24.30
2017-07-20T10:36:41.389Z,24.30
2017-07-20T10:39:07.890Z,24.40
2017-07-20T10:41:34.414Z,24.50
2017-07-20T10:44:01.642Z,24.60
2017-07-20T10:46:28.883Z,24.50
2017-07-20T10:48:55.385Z,24.50
2017-07-20T10:51:21.891Z,24.40
2017-07-20T10:53:48.389Z,24.40
2017-07-20T10:56:14.650Z,24.60
2017-07-20T10:58:41.636Z,24.80
2017-07-20T11:01:07.913Z,24.80
2017-07-20T11:03:34.174Z,25.00
2017-07-20T11:06:00.434Z,25.00
2017-07-20T11:08:26.724Z,25.10
2017-07-20T11:10:52.968Z,25.20
2017-07-20T11:13:19.283Z,25.00
2017-07-20T11:15:45.546Z,25.20
2017-07-20T11:18:11.843Z,25.20
2017-07-20T11:20:38.166Z,25.40
2017-07-20T11:23:04.544Z,25.70
2017-07-20T11:25:30.823Z,25.80
2017-07-20T11:27:57.106Z,26.00
2017-07-20T11:30:25.834Z,26.20
2017-07-20T11:32:52.140Z,26.10
2017-07-20T11:35:19.239Z,26.30
2017-07-20T11:37:45.573Z,26.20
2017-07-20T11:40:11.877Z,26.40
2017-07-20T11:42:38.173Z,26.50
2017-07-20T11:45:05.227Z,26.50
2017-07-20T11:47:31.509Z,26.50
2017-07-20T11:49:57.742Z,26.60
2017-07-20T11:52:23.995Z,26.70
2017-07-20T11:54:50.246Z,27.00
2017-07-20T11:57:16.500Z,27.40
2017-07-20T11:59:42.747Z,27.10
2017-07-20T12:02:09.017Z,27.40
2017-07-20T12:04:35.259Z,27.60
2017-07-20T12:07:01.533Z,27.60
2017-07-20T12:09:27.801Z,27.70
2017-07-20T12:11:54.811Z,27.60
2017-07-20T12:14:21.048Z,27.60
2017-07-20T12:16:47.289Z,27.50
2017-07-20T12:19:13.537Z,27.20
2017-07-20T12:21:39.785Z,26.90
2017-07-20T12:24:06.021Z,26.70
2017-07-20T12:26:32.258Z,26.50
2017-07-20T12:28:58.512Z,26.50
2017-07-20T12:31:24.754Z,26.60
2017-07-20T12:33:51.757Z,26.90
2017-07-20T12:36:18.013Z,26.80
2017-07-20T12:38:44.285Z,26.90
2017-07-20T12:41:10.540Z,27.30
2017-07-20T12:43:36.807Z,26.70
2017-07-20T12:46:03.058Z,26.50
2017-07-20T12:48:29.342Z,26.40
2017-07-20T12:50:55.595Z,26.40
2017-07-20T12:53:21.850Z,26.50
2017-07-20T12:55:48.097Z,26.90
2017-07-20T12:58:14.350Z,26.90
2017-07-20T13:00:40.622Z,27.50
2017-07-20T13:03:06.882Z,27.90
2017-07-20T13:05:33.174Z,28.20
2017-07-20T13:08:00.161Z,28.50
2017-07-20T13:10:26.421Z,28.40
2017-07-20T13:12:59.505Z,28.70
2017-07-20T13:15:26.555Z,28.60
2017-07-20T13:17:52.824Z,28.60
2017-07-20T13:20:19.073Z,28.60
2017-07-20T13:22:45.340Z,28.70
2017-07-20T13:25:11.594Z,28.70
2017-07-20T13:27:38.601Z,28.80
2017-07-20T13:30:04.851Z,28.80
2017-07-20T13:32:31.115Z,28.60
2017-07-20T13:34:57.420Z,28.80
2017-07-20T13:37:23.703Z,28.90
2017-07-20T13:39:49.941Z,28.90
2017-07-20T13:42:16.266Z,29.00
2017-07-20T13:44:42.563Z,29.10
2017-07-20T13:47:08.826Z,29.20
2017-07-20T13:49:35.094Z,29.10
2017-07-20T13:52:01.384Z,29.00
2017-07-20T13:54:27.702Z,29.00
2017-07-20T13:56:53.959Z,28.80
2017-07-20T13:59:20.250Z,28.70
2017-07-20T14:01:46.545Z,28.70
2017-07-20T14:04:12.826Z,28.60
2017-07-20T14:06:39.113Z,28.50
2017-07-20T14:09:05.426Z,28.30
2017-07-20T14:11:31.746Z,27.90
2017-07-20T14:13:58.765Z,27.60
2017-07-20T14:16:25.056Z,27.60
2017-07-20T14:18:51.385Z,27.80
2017-07-20T14:21:17.648Z,28.10
2017-07-20T14:23:44.145Z,28.20
2017-07-20T14:26:10.412Z,28.30
2017-07-20T14:28:37.421Z,28.40
2017-07-20T14:31:03.706Z,28.40
2017-07-20T14:33:30.706Z,28.40
2017-07-20T14:35:56.986Z,28.40
2017-07-20T14:38:23.280Z,28.30
2017-07-20T14:40:49.558Z,28.10
2017-07-20T14:43:15.842Z,28.00
2017-07-20T14:45:42.124Z,27.70
2017-07-20T14:48:08.410Z,27.80
2017-07-20T14:50:34.891Z,28.10
2017-07-20T14:53:01.395Z,28.10
2017-07-20T14:55:27.957Z,27.80
2017-07-20T14:57:54.463Z,28.10
2017-07-20T15:00:20.971Z,28.00
2017-07-20T15:02:47.442Z,27.90
2017-07-20T15:05:13.974Z,27.70
2017-07-20T15:07:40.437Z,27.50
2017-07-20T15:10:06.939Z,27.60
2017-07-20T15:12:33.425Z,27.70
2017-07-20T15:14:59.958Z,27.80
2017-07-20T15:17:26.447Z,27.40
2017-07-20T15:19:53.049Z,28.10
2017-07-20T15:22:19.562Z,28.20
2017-07-20T15:24:46.047Z,28.30
2017-07-20T15:27:12.597Z,28.30
2017-07-20T15:29:39.114Z,28.00
2017-07-20T15:32:05.679Z,27.80
2017-07-20T15:34:32.152Z,27.30
2017-07-20T15:36:58.669Z,27.40
2017-07-20T15:39:25.158Z,27.10
2017-07-20T15:41:51.680Z,26.90
2017-07-20T15:44:18.162Z,26.70
2017-07-20T15:46:44.645Z,26.50
2017-07-20T15:49:11.180Z,26.40
2017-07-20T15:51:37.669Z,26.60
2017-07-20T15:54:04.195Z,26.60
2017-07-20T15:56:30.687Z,26.70
2017-07-20T15:58:57.197Z,26.80
2017-07-20T16:01:23.698Z,26.70
2017-07-20T16:03:50.231Z,26.60
2017-07-20T16:06:17.466Z,26.70
2017-07-20T16:08:43.981Z,26.70
2017-07-20T16:11:10.456Z,26.80
2017-07-20T16:13:36.982Z,26.90
2017-07-20T16:16:04.277Z,27.20
2017-07-20T16:18:30.815Z,27.20
2017-07-20T16:20:58.147Z,27.00
2017-07-20T16:23:24.669Z,27.00
2017-07-20T16:25:51.176Z,27.00
2017-07-20T16:28:17.670Z,26.80
2017-07-20T16:30:44.198Z,26.70
2017-07-20T16:33:10.714Z,26.60
2017-07-20T16:35:37.993Z,26.50
2017-07-20T16:38:04.505Z,26.50
2017-07-20T16:40:31.028Z,26.40
2017-07-20T16:42:57.506Z,26.40
2017-07-20T16:45:24.061Z,26.30
2017-07-20T16:47:50.627Z,26.20
2017-07-20T16:50:17.165Z,26.20
2017-07-20T16:52:43.662Z,26.20
2017-07-20T16:55:10.163Z,26.20
2017-07-20T16:57:36.700Z,26.10
2017-07-20T17:00:03.130Z,25.80
2017-07-20T17:02:29.637Z,25.90
2017-07-20T17:04:56.116Z,25.90
2017-07-20T17:07:22.631Z,26.00
2017-07-20T17:09:49.034Z,25.90
2017-07-20T17:12:15.549Z,25.90
2017-07-20T17:14:42.042Z,26.00
2017-07-20T17:17:08.537Z,26.00
2017-07-20T17:19:35.039Z,26.00
2017-07-20T17:22:01.646Z,26.00
2017-07-20T17:24:28.184Z,26.10
2017-07-20T17:26:55.877Z,26.00
2017-07-20T17:29:22.468Z,26.00
2017-07-20T17:31:48.946Z,26.00
2017-07-20T17:34:16.178Z,25.80
2017-07-20T17:36:42.638Z,25.80
2017-07-20T17:39:09.120Z,25.80
2017-07-20T17:41:35.661Z,25.80
2017-07-20T17:44:02.196Z,25.80
2017-07-20T17:46:28.656Z,25.70
2017-07-20T17:48:55.287Z,25.80
2017-07-20T17:51:21.783Z,25.70
2017-07-20T17:53:48.290Z,25.70
2017-07-20T17:56:14.868Z,25.50
2017-07-20T17:58:41.352Z,25.60
2017-07-20T18:01:08.605Z,25.60
2017-07-20T18:03:35.109Z,25.60
2017-07-20T18:06:02.402Z,25.70
2017-07-20T18:08:28.897Z,25.60
2017-07-20T18:10:55.399Z,25.60
2017-07-20T18:13:21.910Z,25.60
2017-07-20T18:15:48.444Z,25.60
2017-07-20T18:18:14.985Z,25.50
2017-07-20T18:20:41.494Z,25.40
2017-07-20T18:23:08.013Z,25.30
2017-07-20T18:25:34.530Z,25.20
2017-07-20T18:28:01.034Z,25.30
2017-07-20T18:30:27.547Z,25.10
2017-07-20T18:32:54.082Z,25.00
2017-07-20T18:35:20.547Z,25.00
2017-07-20T18:37:47.120Z,25.00
2017-07-20T18:40:14.345Z,24.90
2017-07-20T18:42:41.619Z,24.80
2017-07-20T18:45:08.121Z,24.80
2017-07-20T18:47:34.645Z,24.90
2017-07-20T18:50:01.121Z,24.90
2017-07-20T18:52:28.406Z,24.70
2017-07-20T18:54:54.893Z,24.70
2017-07-20T18:57:21.408Z,24.60
2017-07-20T18:59:47.889Z,24.00
2017-07-20T19:02:14.373Z,23.40
2017-07-20T19:04:40.881Z,22.60
2017-07-20T19:07:07.385Z,22.00
2017-07-20T19:09:33.898Z,21.70
2017-07-20T19:12:00.590Z,21.40
2017-07-20T19:14:27.086Z,20.70
2017-07-20T19:16:53.582Z,21.20
2017-07-20T19:19:20.125Z,21.10
2017-07-20T19:21:46.629Z,21.10
2017-07-20T19:24:13.160Z,21.10
2017-07-20T19:26:39.615Z,21.10
2017-07-20T19:29:06.121Z,21.20
2017-07-20T19:31:32.632Z,21.20
2017-07-20T19:33:59.955Z,21.20
2017-07-20T19:36:28.352Z,21.30
2017-07-20T19:38:55.760Z,20.80
2017-07-20T19:41:23.028Z,21.30
2017-07-20T19:43:50.070Z,21.30
2017-07-20T19:46:17.225Z,21.30
2017-07-20T19:48:44.420Z,21.40
2017-07-20T19:51:12.154Z,21.20
2017-07-20T19:53:39.303Z,20.60
2017-07-20T19:56:06.886Z,21.30
2017-07-20T19:58:34.003Z,21.20
2017-07-20T20:01:00.949Z,21.20
2017-07-20T20:03:28.198Z,21.20
2017-07-20T20:05:55.010Z,21.20
2017-07-20T20:08:22.550Z,21.20
2017-07-20T20:10:49.339Z,21.20
2017-07-20T20:13:15.934Z,21.20
2017-07-20T20:15:42.596Z,21.20
2017-07-20T20:18:09.081Z,21.30
2017-07-20T20:20:35.573Z,21.10
2017-07-20T20:23:02.790Z,21.30
2017-07-20T20:25:29.321Z,21.30
2017-07-20T20:27:56.110Z,21.50
2017-07-20T20:30:23.470Z,21.50
2017-07-20T20:32:51.052Z,21.50
2017-07-20T20:35:18.573Z,21.50
2017-07-20T20:37:45.924Z,21.40
2017-07-20T20:40:13.349Z,21.30
2017-07-20T20:42:40.343Z,21.40
2017-07-20T20:45:07.866Z,21.40
2017-07-20T20:47:35.082Z,21.40
2017-07-20T20:50:02.604Z,21.30
2017-07-20T20:52:29.624Z,21.40
2017-07-20T20:54:56.445Z,21.20
2017-07-20T20:57:22.980Z,21.20
2017-07-20T20:59:49.599Z,21.10
2017-07-20T21:02:16.247Z,21.20
2017-07-20T21:04:43.204Z,21.30
2017-07-20T21:07:09.720Z,21.30
2017-07-20T21:09:36.246Z,21.40
2017-07-20T21:12:02.826Z,21.40
2017-07-20T21:14:30.072Z,21.30
2017-07-20T21:16:56.772Z,21.30
2017-07-20T21:19:23.332Z,21.30
2017-07-20T21:21:49.882Z,21.30
2017-07-20T21:24:16.482Z,21.20
2017-07-20T21:26:42.918Z,21.10
2017-07-20T21:29:09.415Z,21.00
2017-07-20T21:31:35.958Z,21.10
2017-07-20T21:34:02.506Z,21.00
2017-07-20T21:36:28.998Z,21.10
2017-07-20T21:38:55.533Z,21.00
2017-07-20T21:41:22.022Z,20.90
2017-07-20T21:43:48.522Z,21.00
2017-07-20T21:46:15.021Z,21.00
2017-07-20T21:48:41.529Z,21.00
2017-07-20T21:51:07.987Z,20.80
2017-07-20T21:53:41.377Z,20.70
2017-07-20T21:56:08.582Z,20.60
2017-07-20T21:58:35.037Z,20.50
2017-07-20T22:01:01.541Z,20.50
2017-07-20T22:03:28.017Z,20.50
2017-07-20T22:05:54.503Z,20.40
2017-07-20T22:08:20.965Z,20.40
2017-07-20T22:10:47.449Z,20.40
2017-07-20T22:13:14.651Z,20.40
2017-07-20T22:15:41.162Z,20.30
2017-07-20T22:18:07.602Z,20.30
2017-07-20T22:20:34.103Z,20.20
2017-07-20T22:23:00.565Z,20.20
2017-07-20T22:25:27.034Z,20.10
2017-07-20T22:27:53.751Z,20.10
2017-07-20T22:30:20.277Z,20.10
2017-07-20T22:32:46.742Z,20.00
2017-07-20T22:35:13.233Z,20.00
2017-07-20T22:37:39.745Z,20.00
2017-07-20T22:40:06.222Z,20.00
2017-07-20T22:42:32.725Z,20.00
2017-07-20T22:44:59.185Z,20.00
2017-07-20T22:47:25.685Z,19.90
2017-07-20T22:49:52.158Z,20.00
2017-07-20T22:52:19.413Z,20.00
2017-07-20T22:54:45.882Z,19.90
2017-07-20T22:57:12.565Z,19.90
2017-07-20T22:59:38.959Z,19.90
2017-07-20T23:02:05.428Z,19.70
2017-07-20T23:04:31.878Z,19.70
2017-07-20T23:06:58.341Z,19.80
2017-07-20T23:09:24.837Z,19.70
2017-07-20T23:11:51.301Z,19.80
2017-07-20T23:14:17.825Z,19.70
2017-07-20T23:16:44.285Z,19.70
2017-07-20T23:19:10.818Z,19.70
2017-07-20T23:21:37.312Z,19.60
2017-07-20T23:24:03.783Z,19.60
2017-07-20T23:26:31.003Z,19.60
2017-07-20T23:28:57.521Z,19.60
2017-07-20T23:31:23.997Z,19.60
2017-07-20T23:33:50.456Z,19.60
2017-07-20T23:36:16.965Z,19.50
2017-07-20T23:38:43.406Z,19.60
2017-07-20T23:41:09.846Z,19.50
2017-07-20T23:43:36.345Z,19.40
2017-07-20T23:46:02.839Z,19.40
2017-07-20T23:48:29.309Z,19.40
2017-07-20T23:50:56.334Z,19.40
2017-07-20T23:53:23.556Z,19.40
2017-07-20T23:55:50.070Z,19.40
2017-07-20T23:58:16.575Z,19.40
